SAOC/RCU METAR and TAF weather

Enter ICAO airport designator
Station Type Date Time Source
SAOC METAR 2019/07/15 20:00 UTC NOAA

SAOC 152000Z 14008KT CAVOK 15/M05 Q1023RMK ESTIMATED WIND


Station Type Date Time Source
SAOC Decoded METAR 2019/07/15 20:00 UTC NOAA

Rio Cuarto Aerodrome, Argentina (SAOC) 33-07S 064-14W 421M
Jul 15, 2019 - 04:00 PM EDT / 2019.07.15 2000 UTC
Wind: from the SE (140 degrees) at 9 MPH (8 KT):0
Visibility: greater than 7 mile(s):0
Temperature: 59 F (15 C)
Dew Point: 23 F (-5 C)
Relative Humidity: 24%
Pressure (altimeter): 30.21 in. Hg (1023 hPa)
ob: SAOC 152000Z 14008KT CAVOK 15/M05 Q1023RMK ESTIMATED WIND
cycle: 20

Station Type Date Time Source
SAOC TAF 2019/06/14 06:13 UTC NOAA

TAF SAOC 140500Z 1406/1506 23010KT 0800 DZ FG OVC007 TX15/1418Z TN07/1410Z
BECMG 1413/1415 23005KT 9999 BKN030

Example: see airport list